sensor_id;sensor_type;location;lat;lon;timestamp;P1;durP1;ratioP1;P2;durP2;ratioP2
24637;SDS011;12773;50.162;8.548;2024-03-08T00:00:58;39.08;;;18.67;;
24637;SDS011;12773;50.162;8.548;2024-03-08T00:03:45;39.90;;;17.92;;
24637;SDS011;12773;50.162;8.548;2024-03-08T00:06:33;40.48;;;18.32;;
24637;SDS011;12773;50.162;8.548;2024-03-08T00:09:20;38.33;;;18.23;;
24637;SDS011;12773;50.162;8.548;2024-03-08T00:12:08;37.00;;;17.80;;
24637;SDS011;12773;50.162;8.548;2024-03-08T00:14:55;37.35;;;17.32;;
24637;SDS011;12773;50.162;8.548;2024-03-08T00:17:43;40.70;;;18.37;;
24637;SDS011;12773;50.162;8.548;2024-03-08T00:20:31;39.80;;;18.20;;
24637;SDS011;12773;50.162;8.548;2024-03-08T00:23:19;41.85;;;17.85;;
24637;SDS011;12773;50.162;8.548;2024-03-08T00:26:06;38.83;;;18.27;;
24637;SDS011;12773;50.162;8.548;2024-03-08T00:28:54;44.58;;;18.42;;
24637;SDS011;12773;50.162;8.548;2024-03-08T00:31:41;42.60;;;18.15;;
24637;SDS011;12773;50.162;8.548;2024-03-08T00:34:29;40.40;;;18.85;;
24637;SDS011;12773;50.162;8.548;2024-03-08T00:37:17;39.78;;;18.17;;
24637;SDS011;12773;50.162;8.548;2024-03-08T00:40:05;44.65;;;19.15;;
24637;SDS011;12773;50.162;8.548;2024-03-08T00:42:55;42.27;;;18.32;;
24637;SDS011;12773;50.162;8.548;2024-03-08T00:45:43;46.30;;;19.62;;
24637;SDS011;12773;50.162;8.548;2024-03-08T00:48:30;42.83;;;18.40;;
24637;SDS011;12773;50.162;8.548;2024-03-08T00:51:18;46.60;;;18.73;;
24637;SDS011;12773;50.162;8.548;2024-03-08T00:54:05;41.60;;;18.55;;
24637;SDS011;12773;50.162;8.548;2024-03-08T00:56:53;44.40;;;19.95;;
24637;SDS011;12773;50.162;8.548;2024-03-08T00:59:41;38.98;;;18.40;;
24637;SDS011;12773;50.162;8.548;2024-03-08T01:02:29;38.17;;;18.55;;
24637;SDS011;12773;50.162;8.548;2024-03-08T01:05:16;39.95;;;18.35;;
24637;SDS011;12773;50.162;8.548;2024-03-08T01:08:05;43.95;;;19.07;;
24637;SDS011;12773;50.162;8.548;2024-03-08T01:10:53;42.10;;;18.00;;
24637;SDS011;12773;50.162;8.548;2024-03-08T01:13:41;42.60;;;18.82;;
24637;SDS011;12773;50.162;8.548;2024-03-08T01:16:28;47.40;;;18.65;;
24637;SDS011;12773;50.162;8.548;2024-03-08T01:19:16;43.35;;;18.95;;
24637;SDS011;12773;50.162;8.548;2024-03-08T01:22:04;41.70;;;19.57;;
24637;SDS011;12773;50.162;8.548;2024-03-08T01:24:51;47.35;;;19.60;;
24637;SDS011;12773;50.162;8.548;2024-03-08T01:27:39;39.50;;;18.60;;
24637;SDS011;12773;50.162;8.548;2024-03-08T01:30:27;41.45;;;19.12;;
24637;SDS011;12773;50.162;8.548;2024-03-08T01:33:14;46.13;;;19.57;;
24637;SDS011;12773;50.162;8.548;2024-03-08T01:36:02;40.65;;;18.92;;
24637;SDS011;12773;50.162;8.548;2024-03-08T01:38:52;41.92;;;18.30;;
24637;SDS011;12773;50.162;8.548;2024-03-08T01:41:40;44.77;;;19.05;;
24637;SDS011;12773;50.162;8.548;2024-03-08T01:44:28;42.23;;;19.12;;
24637;SDS011;12773;50.162;8.548;2024-03-08T01:47:16;40.85;;;18.62;;
24637;SDS011;12773;50.162;8.548;2024-03-08T01:50:04;40.33;;;18.62;;
24637;SDS011;12773;50.162;8.548;2024-03-08T01:52:55;45.52;;;20.37;;
24637;SDS011;12773;50.162;8.548;2024-03-08T01:55:44;45.35;;;19.20;;
24637;SDS011;12773;50.162;8.548;2024-03-08T01:58:33;42.25;;;18.65;;
24637;SDS011;12773;50.162;8.548;2024-03-08T02:01:21;47.38;;;19.75;;
24637;SDS011;12773;50.162;8.548;2024-03-08T02:04:09;44.85;;;20.32;;
24637;SDS011;12773;50.162;8.548;2024-03-08T02:06:56;49.93;;;19.90;;
24637;SDS011;12773;50.162;8.548;2024-03-08T02:09:44;46.55;;;19.52;;
24637;SDS011;12773;50.162;8.548;2024-03-08T02:12:31;44.35;;;19.77;;
24637;SDS011;12773;50.162;8.548;2024-03-08T02:15:19;47.83;;;20.57;;
24637;SDS011;12773;50.162;8.548;2024-03-08T02:18:07;51.10;;;20.80;;
24637;SDS011;12773;50.162;8.548;2024-03-08T02:20:54;47.20;;;20.85;;
24637;SDS011;12773;50.162;8.548;2024-03-08T02:23:43;46.60;;;19.85;;
24637;SDS011;12773;50.162;8.548;2024-03-08T02:26:30;44.23;;;20.40;;
24637;SDS011;12773;50.162;8.548;2024-03-08T02:29:18;44.55;;;19.75;;
24637;SDS011;12773;50.162;8.548;2024-03-08T02:32:06;45.33;;;19.92;;
24637;SDS011;12773;50.162;8.548;2024-03-08T02:34:56;48.28;;;20.55;;
24637;SDS011;12773;50.162;8.548;2024-03-08T02:37:45;43.80;;;19.90;;
24637;SDS011;12773;50.162;8.548;2024-03-08T02:40:36;48.40;;;19.87;;
24637;SDS011;12773;50.162;8.548;2024-03-08T02:43:24;50.28;;;20.40;;
24637;SDS011;12773;50.162;8.548;2024-03-08T02:46:11;47.48;;;20.32;;
24637;SDS011;12773;50.162;8.548;2024-03-08T02:48:59;45.45;;;20.23;;
24637;SDS011;12773;50.162;8.548;2024-03-08T02:51:46;49.30;;;21.85;;
24637;SDS011;12773;50.162;8.548;2024-03-08T02:54:34;44.60;;;19.80;;
24637;SDS011;12773;50.162;8.548;2024-03-08T02:57:22;50.83;;;20.72;;
24637;SDS011;12773;50.162;8.548;2024-03-08T03:00:10;47.75;;;20.17;;
24637;SDS011;12773;50.162;8.548;2024-03-08T03:02:58;47.55;;;21.27;;
24637;SDS011;12773;50.162;8.548;2024-03-08T03:05:48;52.17;;;21.62;;
24637;SDS011;12773;50.162;8.548;2024-03-08T03:08:35;50.28;;;21.05;;
24637;SDS011;12773;50.162;8.548;2024-03-08T03:11:24;48.73;;;21.42;;
24637;SDS011;12773;50.162;8.548;2024-03-08T03:14:12;50.12;;;21.42;;
24637;SDS011;12773;50.162;8.548;2024-03-08T03:17:00;51.92;;;21.73;;
24637;SDS011;12773;50.162;8.548;2024-03-08T03:19:48;44.42;;;20.72;;
24637;SDS011;12773;50.162;8.548;2024-03-08T03:22:38;50.15;;;21.87;;
24637;SDS011;12773;50.162;8.548;2024-03-08T03:25:31;57.30;;;22.35;;
24637;SDS011;12773;50.162;8.548;2024-03-08T03:28:21;52.17;;;21.50;;
24637;SDS011;12773;50.162;8.548;2024-03-08T03:31:09;55.43;;;22.27;;
24637;SDS011;12773;50.162;8.548;2024-03-08T03:33:58;52.58;;;21.75;;
24637;SDS011;12773;50.162;8.548;2024-03-08T03:36:48;51.60;;;22.05;;
24637;SDS011;12773;50.162;8.548;2024-03-08T03:39:35;50.08;;;22.15;;
24637;SDS011;12773;50.162;8.548;2024-03-08T03:42:24;52.20;;;22.85;;
24637;SDS011;12773;50.162;8.548;2024-03-08T03:45:12;49.15;;;21.68;;
24637;SDS011;12773;50.162;8.548;2024-03-08T03:48:08;56.35;;;23.67;;
24637;SDS011;12773;50.162;8.548;2024-03-08T03:50:55;54.05;;;23.20;;
24637;SDS011;12773;50.162;8.548;2024-03-08T03:53:42;53.17;;;22.90;;
24637;SDS011;12773;50.162;8.548;2024-03-08T03:56:29;51.63;;;22.70;;
24637;SDS011;12773;50.162;8.548;2024-03-08T03:59:17;57.75;;;24.18;;
24637;SDS011;12773;50.162;8.548;2024-03-08T04:02:05;55.00;;;22.93;;
24637;SDS011;12773;50.162;8.548;2024-03-08T04:04:53;53.78;;;23.27;;
24637;SDS011;12773;50.162;8.548;2024-03-08T04:07:40;53.48;;;22.75;;
24637;SDS011;12773;50.162;8.548;2024-03-08T04:10:28;53.98;;;22.30;;
24637;SDS011;12773;50.162;8.548;2024-03-08T04:13:16;56.18;;;23.30;;
24637;SDS011;12773;50.162;8.548;2024-03-08T04:16:03;57.27;;;23.98;;
24637;SDS011;12773;50.162;8.548;2024-03-08T04:18:53;52.23;;;22.50;;
24637;SDS011;12773;50.162;8.548;2024-03-08T04:21:40;57.55;;;23.83;;
24637;SDS011;12773;50.162;8.548;2024-03-08T04:24:28;53.48;;;23.67;;
24637;SDS011;12773;50.162;8.548;2024-03-08T04:27:16;55.43;;;24.75;;
24637;SDS011;12773;50.162;8.548;2024-03-08T04:30:05;56.13;;;23.05;;
24637;SDS011;12773;50.162;8.548;2024-03-08T04:32:55;54.10;;;24.00;;
24637;SDS011;12773;50.162;8.548;2024-03-08T04:35:43;51.30;;;23.05;;
24637;SDS011;12773;50.162;8.548;2024-03-08T04:38:31;54.33;;;23.77;;
24637;SDS011;12773;50.162;8.548;2024-03-08T04:41:19;58.40;;;23.50;;
24637;SDS011;12773;50.162;8.548;2024-03-08T04:44:09;58.10;;;23.80;;
24637;SDS011;12773;50.162;8.548;2024-03-08T04:46:58;54.60;;;22.00;;
24637;SDS011;12773;50.162;8.548;2024-03-08T04:49:46;61.18;;;23.38;;
24637;SDS011;12773;50.162;8.548;2024-03-08T04:52:34;53.02;;;24.75;;
24637;SDS011;12773;50.162;8.548;2024-03-08T04:55:24;56.73;;;23.00;;
24637;SDS011;12773;50.162;8.548;2024-03-08T04:58:11;57.55;;;24.07;;
24637;SDS011;12773;50.162;8.548;2024-03-08T05:00:59;55.10;;;23.77;;
24637;SDS011;12773;50.162;8.548;2024-03-08T05:03:47;56.50;;;23.70;;
24637;SDS011;12773;50.162;8.548;2024-03-08T05:06:35;59.45;;;24.32;;
24637;SDS011;12773;50.162;8.548;2024-03-08T05:09:22;60.80;;;24.00;;
24637;SDS011;12773;50.162;8.548;2024-03-08T05:12:10;65.28;;;25.70;;
24637;SDS011;12773;50.162;8.548;2024-03-08T05:14:57;54.80;;;24.47;;
24637;SDS011;12773;50.162;8.548;2024-03-08T05:17:46;68.67;;;25.48;;
24637;SDS011;12773;50.162;8.548;2024-03-08T05:20:33;54.48;;;23.85;;
24637;SDS011;12773;50.162;8.548;2024-03-08T05:23:23;54.88;;;23.62;;
24637;SDS011;12773;50.162;8.548;2024-03-08T05:26:10;55.95;;;24.02;;
24637;SDS011;12773;50.162;8.548;2024-03-08T05:28:58;62.40;;;24.07;;
24637;SDS011;12773;50.162;8.548;2024-03-08T05:31:46;55.50;;;23.65;;
24637;SDS011;12773;50.162;8.548;2024-03-08T05:34:38;61.98;;;24.32;;
24637;SDS011;12773;50.162;8.548;2024-03-08T05:37:26;59.90;;;24.02;;
24637;SDS011;12773;50.162;8.548;2024-03-08T05:40:14;61.77;;;23.87;;
24637;SDS011;12773;50.162;8.548;2024-03-08T05:43:02;55.88;;;23.12;;
24637;SDS011;12773;50.162;8.548;2024-03-08T05:45:51;52.75;;;23.65;;
24637;SDS011;12773;50.162;8.548;2024-03-08T05:48:38;57.05;;;23.20;;
24637;SDS011;12773;50.162;8.548;2024-03-08T05:51:26;62.35;;;23.92;;
24637;SDS011;12773;50.162;8.548;2024-03-08T05:54:13;60.25;;;23.95;;
24637;SDS011;12773;50.162;8.548;2024-03-08T05:57:02;56.15;;;24.72;;
24637;SDS011;12773;50.162;8.548;2024-03-08T05:59:49;54.95;;;23.45;;
24637;SDS011;12773;50.162;8.548;2024-03-08T06:02:37;54.58;;;23.47;;
24637;SDS011;12773;50.162;8.548;2024-03-08T06:05:27;54.70;;;23.42;;
24637;SDS011;12773;50.162;8.548;2024-03-08T06:08:15;56.68;;;24.63;;
24637;SDS011;12773;50.162;8.548;2024-03-08T06:11:02;56.83;;;22.93;;
24637;SDS011;12773;50.162;8.548;2024-03-08T06:13:51;54.55;;;23.38;;
24637;SDS011;12773;50.162;8.548;2024-03-08T06:16:40;57.58;;;23.67;;
24637;SDS011;12773;50.162;8.548;2024-03-08T06:19:28;60.55;;;23.52;;
24637;SDS011;12773;50.162;8.548;2024-03-08T06:22:15;58.58;;;24.27;;
24637;SDS011;12773;50.162;8.548;2024-03-08T06:25:02;59.73;;;23.02;;
24637;SDS011;12773;50.162;8.548;2024-03-08T06:27:50;59.45;;;24.60;;
24637;SDS011;12773;50.162;8.548;2024-03-08T06:30:38;54.95;;;23.22;;
24637;SDS011;12773;50.162;8.548;2024-03-08T06:33:26;52.20;;;22.80;;
24637;SDS011;12773;50.162;8.548;2024-03-08T06:36:17;54.25;;;22.87;;
24637;SDS011;12773;50.162;8.548;2024-03-08T06:39:08;56.05;;;22.73;;
24637;SDS011;12773;50.162;8.548;2024-03-08T06:41:56;55.98;;;23.60;;
24637;SDS011;12773;50.162;8.548;2024-03-08T06:44:43;57.43;;;22.85;;
24637;SDS011;12773;50.162;8.548;2024-03-08T06:47:32;56.00;;;23.52;;
24637;SDS011;12773;50.162;8.548;2024-03-08T06:50:23;58.92;;;22.77;;
24637;SDS011;12773;50.162;8.548;2024-03-08T06:53:11;57.98;;;22.82;;
24637;SDS011;12773;50.162;8.548;2024-03-08T06:55:59;57.62;;;24.02;;
24637;SDS011;12773;50.162;8.548;2024-03-08T06:58:47;57.15;;;24.12;;
24637;SDS011;12773;50.162;8.548;2024-03-08T07:01:35;54.55;;;22.73;;
24637;SDS011;12773;50.162;8.548;2024-03-08T07:04:22;55.23;;;22.65;;
24637;SDS011;12773;50.162;8.548;2024-03-08T07:07:12;54.93;;;23.20;;
24637;SDS011;12773;50.162;8.548;2024-03-08T07:09:59;60.78;;;23.80;;
24637;SDS011;12773;50.162;8.548;2024-03-08T07:12:46;50.25;;;22.30;;
24637;SDS011;12773;50.162;8.548;2024-03-08T07:15:34;48.78;;;22.62;;
24637;SDS011;12773;50.162;8.548;2024-03-08T07:18:21;59.75;;;24.32;;
24637;SDS011;12773;50.162;8.548;2024-03-08T07:21:09;61.08;;;23.50;;
24637;SDS011;12773;50.162;8.548;2024-03-08T07:23:57;57.05;;;22.55;;
24637;SDS011;12773;50.162;8.548;2024-03-08T07:26:49;53.42;;;23.07;;
24637;SDS011;12773;50.162;8.548;2024-03-08T07:29:38;54.98;;;23.10;;
24637;SDS011;12773;50.162;8.548;2024-03-08T07:32:25;53.17;;;22.93;;
24637;SDS011;12773;50.162;8.548;2024-03-08T07:35:15;56.58;;;23.45;;
24637;SDS011;12773;50.162;8.548;2024-03-08T07:38:04;55.33;;;22.60;;
24637;SDS011;12773;50.162;8.548;2024-03-08T07:40:52;53.73;;;23.35;;
24637;SDS011;12773;50.162;8.548;2024-03-08T07:43:39;52.43;;;22.80;;
24637;SDS011;12773;50.162;8.548;2024-03-08T07:46:27;48.05;;;21.55;;
24637;SDS011;12773;50.162;8.548;2024-03-08T07:49:17;56.37;;;21.82;;
24637;SDS011;12773;50.162;8.548;2024-03-08T07:52:05;49.95;;;22.22;;
24637;SDS011;12773;50.162;8.548;2024-03-08T07:54:53;50.75;;;22.95;;
24637;SDS011;12773;50.162;8.548;2024-03-08T07:57:40;47.65;;;21.68;;
24637;SDS011;12773;50.162;8.548;2024-03-08T08:00:30;50.33;;;21.62;;
24637;SDS011;12773;50.162;8.548;2024-03-08T08:03:17;46.83;;;21.55;;
24637;SDS011;12773;50.162;8.548;2024-03-08T08:06:06;50.73;;;23.35;;
24637;SDS011;12773;50.162;8.548;2024-03-08T08:08:54;47.60;;;22.17;;
24637;SDS011;12773;50.162;8.548;2024-03-08T08:11:42;51.05;;;22.05;;
24637;SDS011;12773;50.162;8.548;2024-03-08T08:14:30;51.77;;;21.57;;
24637;SDS011;12773;50.162;8.548;2024-03-08T08:17:17;51.98;;;22.82;;
24637;SDS011;12773;50.162;8.548;2024-03-08T08:20:06;47.93;;;21.57;;
24637;SDS011;12773;50.162;8.548;2024-03-08T08:22:54;43.90;;;20.37;;
24637;SDS011;12773;50.162;8.548;2024-03-08T08:25:41;51.23;;;21.77;;
24637;SDS011;12773;50.162;8.548;2024-03-08T08:28:29;49.73;;;21.60;;
24637;SDS011;12773;50.162;8.548;2024-03-08T08:31:17;46.37;;;20.77;;
24637;SDS011;12773;50.162;8.548;2024-03-08T08:34:05;47.35;;;21.15;;
24637;SDS011;12773;50.162;8.548;2024-03-08T08:36:52;48.08;;;21.75;;
24637;SDS011;12773;50.162;8.548;2024-03-08T08:39:41;45.80;;;20.77;;
24637;SDS011;12773;50.162;8.548;2024-03-08T08:42:29;43.83;;;19.82;;
24637;SDS011;12773;50.162;8.548;2024-03-08T08:45:16;45.58;;;21.68;;
24637;SDS011;12773;50.162;8.548;2024-03-08T08:48:06;50.43;;;21.35;;
24637;SDS011;12773;50.162;8.548;2024-03-08T08:50:54;44.55;;;21.50;;
24637;SDS011;12773;50.162;8.548;2024-03-08T08:53:41;48.23;;;21.87;;
24637;SDS011;12773;50.162;8.548;2024-03-08T08:56:31;47.20;;;21.87;;
24637;SDS011;12773;50.162;8.548;2024-03-08T08:59:18;45.98;;;20.43;;
24637;SDS011;12773;50.162;8.548;2024-03-08T09:02:07;47.93;;;19.85;;
24637;SDS011;12773;50.162;8.548;2024-03-08T09:04:56;45.98;;;20.85;;
24637;SDS011;12773;50.162;8.548;2024-03-08T09:07:44;45.48;;;19.70;;
24637;SDS011;12773;50.162;8.548;2024-03-08T09:10:31;44.58;;;20.35;;
24637;SDS011;12773;50.162;8.548;2024-03-08T09:13:19;46.55;;;20.50;;
24637;SDS011;12773;50.162;8.548;2024-03-08T09:16:08;40.75;;;19.48;;
24637;SDS011;12773;50.162;8.548;2024-03-08T09:18:56;43.50;;;20.05;;
24637;SDS011;12773;50.162;8.548;2024-03-08T09:21:43;41.23;;;20.23;;
24637;SDS011;12773;50.162;8.548;2024-03-08T09:24:31;42.88;;;19.35;;
24637;SDS011;12773;50.162;8.548;2024-03-08T09:27:18;36.42;;;19.00;;
24637;SDS011;12773;50.162;8.548;2024-03-08T09:30:06;40.05;;;19.25;;
24637;SDS011;12773;50.162;8.548;2024-03-08T09:32:54;40.15;;;18.85;;
24637;SDS011;12773;50.162;8.548;2024-03-08T09:35:43;45.40;;;20.08;;
24637;SDS011;12773;50.162;8.548;2024-03-08T09:38:32;43.95;;;18.80;;
24637;SDS011;12773;50.162;8.548;2024-03-08T09:41:23;39.48;;;18.32;;
24637;SDS011;12773;50.162;8.548;2024-03-08T09:44:10;41.68;;;19.10;;
24637;SDS011;12773;50.162;8.548;2024-03-08T09:46:58;37.88;;;18.77;;
24637;SDS011;12773;50.162;8.548;2024-03-08T09:49:48;37.42;;;18.00;;
24637;SDS011;12773;50.162;8.548;2024-03-08T09:52:36;39.92;;;18.35;;
24637;SDS011;12773;50.162;8.548;2024-03-08T09:55:25;41.15;;;18.27;;
24637;SDS011;12773;50.162;8.548;2024-03-08T09:58:15;37.33;;;17.95;;
24637;SDS011;12773;50.162;8.548;2024-03-08T10:01:04;38.45;;;18.87;;
24637;SDS011;12773;50.162;8.548;2024-03-08T10:03:52;39.75;;;18.70;;
24637;SDS011;12773;50.162;8.548;2024-03-08T10:06:40;36.83;;;18.23;;
24637;SDS011;12773;50.162;8.548;2024-03-08T10:09:29;40.70;;;18.75;;
24637;SDS011;12773;50.162;8.548;2024-03-08T10:12:17;34.75;;;18.20;;
24637;SDS011;12773;50.162;8.548;2024-03-08T10:15:08;35.20;;;16.25;;
24637;SDS011;12773;50.162;8.548;2024-03-08T10:17:58;33.23;;;16.50;;
24637;SDS011;12773;50.162;8.548;2024-03-08T10:20:45;32.93;;;16.32;;
24637;SDS011;12773;50.162;8.548;2024-03-08T10:23:33;34.50;;;16.90;;
24637;SDS011;12773;50.162;8.548;2024-03-08T10:26:20;34.60;;;16.80;;
24637;SDS011;12773;50.162;8.548;2024-03-08T10:29:09;30.45;;;15.68;;
24637;SDS011;12773;50.162;8.548;2024-03-08T10:31:58;31.97;;;16.10;;
24637;SDS011;12773;50.162;8.548;2024-03-08T10:34:46;31.82;;;16.45;;
24637;SDS011;12773;50.162;8.548;2024-03-08T10:37:45;32.20;;;16.77;;
24637;SDS011;12773;50.162;8.548;2024-03-08T10:40:34;30.25;;;15.68;;
24637;SDS011;12773;50.162;8.548;2024-03-08T10:43:25;33.08;;;15.35;;
24637;SDS011;12773;50.162;8.548;2024-03-08T10:46:21;24.47;;;12.33;;
24637;SDS011;12773;50.162;8.548;2024-03-08T10:49:18;25.77;;;12.28;;
24637;SDS011;12773;50.162;8.548;2024-03-08T10:52:09;20.48;;;11.40;;
24637;SDS011;12773;50.162;8.548;2024-03-08T10:54:58;23.85;;;12.23;;
24637;SDS011;12773;50.162;8.548;2024-03-08T10:57:48;26.10;;;11.60;;
24637;SDS011;12773;50.162;8.548;2024-03-08T11:00:37;22.87;;;11.75;;
24637;SDS011;12773;50.162;8.548;2024-03-08T11:09:47;27.62;;;12.53;;
24637;SDS011;12773;50.162;8.548;2024-03-08T11:12:24;25.43;;;11.70;;
24637;SDS011;12773;50.162;8.548;2024-03-08T11:15:14;25.37;;;13.38;;
24637;SDS011;12773;50.162;8.548;2024-03-08T11:18:03;25.88;;;12.80;;
24637;SDS011;12773;50.162;8.548;2024-03-08T11:20:54;25.60;;;13.08;;
24637;SDS011;12773;50.162;8.548;2024-03-08T11:23:43;23.10;;;12.93;;
24637;SDS011;12773;50.162;8.548;2024-03-08T11:26:34;26.90;;;12.93;;
24637;SDS011;12773;50.162;8.548;2024-03-08T11:32:21;19.15;;;11.25;;
24637;SDS011;12773;50.162;8.548;2024-03-08T11:35:17;24.15;;;12.68;;
24637;SDS011;12773;50.162;8.548;2024-03-08T11:38:07;22.60;;;12.00;;
24637;SDS011;12773;50.162;8.548;2024-03-08T11:43:35;25.00;;;12.98;;
24637;SDS011;12773;50.162;8.548;2024-03-08T11:46:24;21.45;;;11.68;;
24637;SDS011;12773;50.162;8.548;2024-03-08T11:49:13;19.20;;;10.70;;
24637;SDS011;12773;50.162;8.548;2024-03-08T11:52:01;20.55;;;10.85;;
24637;SDS011;12773;50.162;8.548;2024-03-08T11:54:52;20.45;;;11.08;;
24637;SDS011;12773;50.162;8.548;2024-03-08T11:57:43;22.10;;;11.50;;
24637;SDS011;12773;50.162;8.548;2024-03-08T12:00:31;21.90;;;11.55;;
24637;SDS011;12773;50.162;8.548;2024-03-08T12:03:21;21.77;;;11.00;;
24637;SDS011;12773;50.162;8.548;2024-03-08T12:06:09;22.95;;;11.03;;
24637;SDS011;12773;50.162;8.548;2024-03-08T12:08:58;22.32;;;12.13;;
24637;SDS011;12773;50.162;8.548;2024-03-08T12:11:49;20.72;;;10.48;;
24637;SDS011;12773;50.162;8.548;2024-03-08T12:14:37;22.75;;;11.22;;
24637;SDS011;12773;50.162;8.548;2024-03-08T12:17:24;20.60;;;10.50;;
24637;SDS011;12773;50.162;8.548;2024-03-08T12:20:14;23.00;;;10.53;;
24637;SDS011;12773;50.162;8.548;2024-03-08T12:23:04;17.40;;;10.15;;
24637;SDS011;12773;50.162;8.548;2024-03-08T12:25:52;20.30;;;11.22;;
24637;SDS011;12773;50.162;8.548;2024-03-08T12:28:40;23.52;;;11.83;;
24637;SDS011;12773;50.162;8.548;2024-03-08T12:31:32;21.00;;;11.60;;
24637;SDS011;12773;50.162;8.548;2024-03-08T12:34:19;32.88;;;12.47;;
24637;SDS011;12773;50.162;8.548;2024-03-08T12:37:06;21.07;;;11.55;;
24637;SDS011;12773;50.162;8.548;2024-03-08T12:39:55;21.25;;;12.10;;
24637;SDS011;12773;50.162;8.548;2024-03-08T12:42:44;22.35;;;11.20;;
24637;SDS011;12773;50.162;8.548;2024-03-08T12:45:35;26.27;;;12.00;;
24637;SDS011;12773;50.162;8.548;2024-03-08T12:48:23;21.25;;;11.73;;
24637;SDS011;12773;50.162;8.548;2024-03-08T12:51:11;23.87;;;12.18;;
24637;SDS011;12773;50.162;8.548;2024-03-08T12:54:01;23.47;;;12.60;;
24637;SDS011;12773;50.162;8.548;2024-03-08T12:56:50;26.33;;;12.00;;
24637;SDS011;12773;50.162;8.548;2024-03-08T12:59:41;20.40;;;11.57;;
24637;SDS011;12773;50.162;8.548;2024-03-08T13:02:28;29.45;;;12.80;;
24637;SDS011;12773;50.162;8.548;2024-03-08T13:05:18;21.35;;;12.10;;
24637;SDS011;12773;50.162;8.548;2024-03-08T13:08:06;24.10;;;11.60;;
24637;SDS011;12773;50.162;8.548;2024-03-08T13:10:55;22.95;;;12.70;;
24637;SDS011;12773;50.162;8.548;2024-03-08T13:13:43;25.25;;;12.55;;
24637;SDS011;12773;50.162;8.548;2024-03-08T13:16:31;27.37;;;13.35;;
24637;SDS011;12773;50.162;8.548;2024-03-08T13:19:20;26.70;;;13.65;;
24637;SDS011;12773;50.162;8.548;2024-03-08T13:22:08;25.48;;;12.88;;
24637;SDS011;12773;50.162;8.548;2024-03-08T13:24:58;29.23;;;13.68;;
24637;SDS011;12773;50.162;8.548;2024-03-08T13:27:46;23.95;;;13.00;;
24637;SDS011;12773;50.162;8.548;2024-03-08T13:30:34;26.93;;;12.73;;
24637;SDS011;12773;50.162;8.548;2024-03-08T13:33:22;26.57;;;12.00;;
24637;SDS011;12773;50.162;8.548;2024-03-08T13:36:10;25.65;;;12.82;;
24637;SDS011;12773;50.162;8.548;2024-03-08T13:39:01;24.70;;;12.65;;
24637;SDS011;12773;50.162;8.548;2024-03-08T13:41:50;23.47;;;13.30;;
24637;SDS011;12773;50.162;8.548;2024-03-08T13:44:37;26.68;;;13.22;;
24637;SDS011;12773;50.162;8.548;2024-03-08T13:47:25;24.55;;;12.65;;
24637;SDS011;12773;50.162;8.548;2024-03-08T13:50:13;25.35;;;13.08;;
24637;SDS011;12773;50.162;8.548;2024-03-08T13:53:02;25.72;;;13.43;;
24637;SDS011;12773;50.162;8.548;2024-03-08T13:55:50;23.67;;;12.90;;
24637;SDS011;12773;50.162;8.548;2024-03-08T13:58:37;23.25;;;12.78;;
24637;SDS011;12773;50.162;8.548;2024-03-08T14:01:26;26.25;;;12.70;;
24637;SDS011;12773;50.162;8.548;2024-03-08T14:04:17;24.52;;;12.40;;
24637;SDS011;12773;50.162;8.548;2024-03-08T14:07:04;26.15;;;13.40;;
24637;SDS011;12773;50.162;8.548;2024-03-08T14:09:53;25.48;;;13.32;;
24637;SDS011;12773;50.162;8.548;2024-03-08T14:12:41;33.78;;;14.10;;
24637;SDS011;12773;50.162;8.548;2024-03-08T14:15:29;28.15;;;12.75;;
24637;SDS011;12773;50.162;8.548;2024-03-08T14:18:18;25.50;;;13.13;;
24637;SDS011;12773;50.162;8.548;2024-03-08T14:21:05;27.48;;;14.03;;
24637;SDS011;12773;50.162;8.548;2024-03-08T14:23:54;26.68;;;13.22;;
24637;SDS011;12773;50.162;8.548;2024-03-08T14:26:42;26.20;;;12.93;;
24637;SDS011;12773;50.162;8.548;2024-03-08T14:29:30;25.97;;;13.43;;
24637;SDS011;12773;50.162;8.548;2024-03-08T14:32:18;29.30;;;13.65;;
24637;SDS011;12773;50.162;8.548;2024-03-08T14:35:07;26.15;;;13.18;;
24637;SDS011;12773;50.162;8.548;2024-03-08T14:37:56;25.85;;;12.63;;
24637;SDS011;12773;50.162;8.548;2024-03-08T14:40:44;28.00;;;13.88;;
24637;SDS011;12773;50.162;8.548;2024-03-08T14:43:33;27.93;;;13.08;;
24637;SDS011;12773;50.162;8.548;2024-03-08T14:46:20;25.95;;;12.73;;
24637;SDS011;12773;50.162;8.548;2024-03-08T14:49:09;28.05;;;13.58;;
24637;SDS011;12773;50.162;8.548;2024-03-08T14:51:56;29.10;;;12.85;;
24637;SDS011;12773;50.162;8.548;2024-03-08T14:54:47;24.27;;;12.70;;
24637;SDS011;12773;50.162;8.548;2024-03-08T14:57:34;23.02;;;11.88;;
24637;SDS011;12773;50.162;8.548;2024-03-08T15:00:22;30.00;;;12.45;;
24637;SDS011;12773;50.162;8.548;2024-03-08T15:03:16;23.60;;;12.07;;
24637;SDS011;12773;50.162;8.548;2024-03-08T15:06:06;24.12;;;12.45;;
24637;SDS011;12773;50.162;8.548;2024-03-08T15:08:56;24.12;;;12.18;;
24637;SDS011;12773;50.162;8.548;2024-03-08T15:11:44;24.47;;;11.80;;
24637;SDS011;12773;50.162;8.548;2024-03-08T15:14:39;24.25;;;12.47;;
24637;SDS011;12773;50.162;8.548;2024-03-08T15:17:28;29.07;;;13.03;;
24637;SDS011;12773;50.162;8.548;2024-03-08T15:20:16;24.77;;;12.80;;
24637;SDS011;12773;50.162;8.548;2024-03-08T15:23:06;24.92;;;12.43;;
24637;SDS011;12773;50.162;8.548;2024-03-08T15:25:55;25.48;;;12.70;;
24637;SDS011;12773;50.162;8.548;2024-03-08T15:28:43;25.45;;;11.48;;
24637;SDS011;12773;50.162;8.548;2024-03-08T15:31:32;22.90;;;12.50;;
24637;SDS011;12773;50.162;8.548;2024-03-08T15:34:20;25.25;;;12.58;;
24637;SDS011;12773;50.162;8.548;2024-03-08T15:37:09;30.32;;;12.58;;
24637;SDS011;12773;50.162;8.548;2024-03-08T15:39:58;23.65;;;12.40;;
24637;SDS011;12773;50.162;8.548;2024-03-08T15:42:45;25.65;;;11.38;;
24637;SDS011;12773;50.162;8.548;2024-03-08T15:45:34;25.02;;;11.40;;
24637;SDS011;12773;50.162;8.548;2024-03-08T15:48:23;28.30;;;12.85;;
24637;SDS011;12773;50.162;8.548;2024-03-08T15:51:10;24.37;;;11.65;;
24637;SDS011;12773;50.162;8.548;2024-03-08T15:53:59;26.07;;;11.88;;
24637;SDS011;12773;50.162;8.548;2024-03-08T15:56:46;27.42;;;11.90;;
24637;SDS011;12773;50.162;8.548;2024-03-08T15:59:35;24.37;;;12.30;;
24637;SDS011;12773;50.162;8.548;2024-03-08T16:02:23;25.75;;;12.25;;
24637;SDS011;12773;50.162;8.548;2024-03-08T16:05:10;26.02;;;11.97;;
24637;SDS011;12773;50.162;8.548;2024-03-08T16:08:00;25.12;;;11.90;;
24637;SDS011;12773;50.162;8.548;2024-03-08T16:10:48;28.38;;;12.07;;
24637;SDS011;12773;50.162;8.548;2024-03-08T16:13:38;23.70;;;11.85;;
24637;SDS011;12773;50.162;8.548;2024-03-08T16:16:27;24.82;;;10.82;;
24637;SDS011;12773;50.162;8.548;2024-03-08T16:19:16;21.85;;;10.75;;
24637;SDS011;12773;50.162;8.548;2024-03-08T16:22:04;23.87;;;11.45;;
24637;SDS011;12773;50.162;8.548;2024-03-08T16:24:51;24.40;;;10.60;;
24637;SDS011;12773;50.162;8.548;2024-03-08T16:27:39;21.25;;;10.43;;
24637;SDS011;12773;50.162;8.548;2024-03-08T16:30:27;19.48;;;10.40;;
24637;SDS011;12773;50.162;8.548;2024-03-08T16:33:16;23.12;;;9.85;;
24637;SDS011;12773;50.162;8.548;2024-03-08T16:36:04;22.52;;;9.83;;